sensor_id;sensor_type;location;lat;lon;timestamp;P1;durP1;ratioP1;P2;durP2;ratioP2
13204;SDS011;6667;52.634;9.226;2023-04-24T00:00:46;1.63;;;1.20;;
13204;SDS011;6667;52.634;9.226;2023-04-24T00:03:13;1.20;;;1.10;;
13204;SDS011;6667;52.634;9.226;2023-04-24T00:05:39;2.73;;;1.10;;
13204;SDS011;6667;52.634;9.226;2023-04-24T00:08:06;1.20;;;1.10;;
13204;SDS011;6667;52.634;9.226;2023-04-24T00:10:34;1.60;;;1.10;;
13204;SDS011;6667;52.634;9.226;2023-04-24T00:13:01;1.03;;;1.00;;
13204;SDS011;6667;52.634;9.226;2023-04-24T00:15:28;1.23;;;1.13;;
13204;SDS011;6667;52.634;9.226;2023-04-24T00:17:54;1.47;;;0.83;;
13204;SDS011;6667;52.634;9.226;2023-04-24T00:20:21;1.23;;;0.83;;
13204;SDS011;6667;52.634;9.226;2023-04-24T00:22:47;0.90;;;0.90;;
13204;SDS011;6667;52.634;9.226;2023-04-24T00:25:14;0.90;;;0.90;;
13204;SDS011;6667;52.634;9.226;2023-04-24T00:27:42;0.87;;;0.87;;
13204;SDS011;6667;52.634;9.226;2023-04-24T00:30:09;0.87;;;0.70;;
13204;SDS011;6667;52.634;9.226;2023-04-24T00:32:36;1.63;;;0.80;;
13204;SDS011;6667;52.634;9.226;2023-04-24T00:35:03;0.87;;;0.87;;
13204;SDS011;6667;52.634;9.226;2023-04-24T00:37:30;1.37;;;0.90;;
13204;SDS011;6667;52.634;9.226;2023-04-24T00:39:57;1.00;;;0.70;;
13204;SDS011;6667;52.634;9.226;2023-04-24T00:42:24;1.00;;;0.90;;
13204;SDS011;6667;52.634;9.226;2023-04-24T00:44:52;0.73;;;0.73;;
13204;SDS011;6667;52.634;9.226;2023-04-24T00:47:19;0.80;;;0.70;;
13204;SDS011;6667;52.634;9.226;2023-04-24T00:49:46;1.10;;;0.93;;
13204;SDS011;6667;52.634;9.226;2023-04-24T00:52:13;0.77;;;0.77;;
13204;SDS011;6667;52.634;9.226;2023-04-24T00:54:42;0.70;;;0.70;;
13204;SDS011;6667;52.634;9.226;2023-04-24T00:57:09;1.53;;;0.80;;
13204;SDS011;6667;52.634;9.226;2023-04-24T00:59:35;0.80;;;0.80;;
13204;SDS011;6667;52.634;9.226;2023-04-24T01:02:04;0.77;;;0.77;;
13204;SDS011;6667;52.634;9.226;2023-04-24T01:04:31;0.60;;;0.60;;
13204;SDS011;6667;52.634;9.226;2023-04-24T01:06:57;1.23;;;0.97;;
13204;SDS011;6667;52.634;9.226;2023-04-24T01:09:25;0.90;;;0.80;;
13204;SDS011;6667;52.634;9.226;2023-04-24T01:11:51;0.70;;;0.70;;
13204;SDS011;6667;52.634;9.226;2023-04-24T01:14:18;1.17;;;0.73;;
13204;SDS011;6667;52.634;9.226;2023-04-24T01:16:45;0.90;;;0.90;;
13204;SDS011;6667;52.634;9.226;2023-04-24T01:19:13;0.80;;;0.80;;
13204;SDS011;6667;52.634;9.226;2023-04-24T01:21:42;0.93;;;0.67;;
13204;SDS011;6667;52.634;9.226;2023-04-24T01:24:11;0.57;;;0.57;;
13204;SDS011;6667;52.634;9.226;2023-04-24T01:26:38;0.50;;;0.50;;
13204;SDS011;6667;52.634;9.226;2023-04-24T01:29:05;0.60;;;0.60;;
13204;SDS011;6667;52.634;9.226;2023-04-24T01:31:32;0.97;;;0.80;;
13204;SDS011;6667;52.634;9.226;2023-04-24T01:33:59;0.73;;;0.60;;
13204;SDS011;6667;52.634;9.226;2023-04-24T01:36:26;0.90;;;0.63;;
13204;SDS011;6667;52.634;9.226;2023-04-24T01:38:54;1.20;;;0.83;;
13204;SDS011;6667;52.634;9.226;2023-04-24T01:41:22;0.77;;;0.50;;
13204;SDS011;6667;52.634;9.226;2023-04-24T01:43:49;1.60;;;0.90;;
13204;SDS011;6667;52.634;9.226;2023-04-24T01:46:16;1.13;;;0.57;;
13204;SDS011;6667;52.634;9.226;2023-04-24T01:48:43;2.33;;;0.63;;
13204;SDS011;6667;52.634;9.226;2023-04-24T01:51:10;0.73;;;0.73;;
13204;SDS011;6667;52.634;9.226;2023-04-24T01:53:37;0.70;;;0.70;;
13204;SDS011;6667;52.634;9.226;2023-04-24T01:56:04;0.50;;;0.50;;
13204;SDS011;6667;52.634;9.226;2023-04-24T01:58:32;0.50;;;0.50;;
13204;SDS011;6667;52.634;9.226;2023-04-24T02:00:59;0.50;;;0.50;;
13204;SDS011;6667;52.634;9.226;2023-04-24T02:03:26;0.60;;;0.60;;
13204;SDS011;6667;52.634;9.226;2023-04-24T02:05:53;1.00;;;0.90;;
13204;SDS011;6667;52.634;9.226;2023-04-24T02:08:19;0.80;;;0.60;;
13204;SDS011;6667;52.634;9.226;2023-04-24T02:10:46;0.90;;;0.90;;
13204;SDS011;6667;52.634;9.226;2023-04-24T02:13:13;0.93;;;0.70;;
13204;SDS011;6667;52.634;9.226;2023-04-24T02:15:41;0.60;;;0.60;;
13204;SDS011;6667;52.634;9.226;2023-04-24T02:18:07;0.83;;;0.83;;
13204;SDS011;6667;52.634;9.226;2023-04-24T02:20:35;0.70;;;0.70;;
13204;SDS011;6667;52.634;9.226;2023-04-24T02:23:01;1.23;;;0.70;;
13204;SDS011;6667;52.634;9.226;2023-04-24T02:25:28;1.10;;;0.60;;
13204;SDS011;6667;52.634;9.226;2023-04-24T02:27:55;2.37;;;0.90;;
13204;SDS011;6667;52.634;9.226;2023-04-24T02:30:21;0.90;;;0.80;;
13204;SDS011;6667;52.634;9.226;2023-04-24T02:32:49;1.27;;;0.77;;
13204;SDS011;6667;52.634;9.226;2023-04-24T02:35:16;0.40;;;0.40;;
13204;SDS011;6667;52.634;9.226;2023-04-24T02:37:43;0.97;;;0.70;;
13204;SDS011;6667;52.634;9.226;2023-04-24T02:40:09;1.43;;;0.80;;
13204;SDS011;6667;52.634;9.226;2023-04-24T02:42:36;1.80;;;0.70;;
13204;SDS011;6667;52.634;9.226;2023-04-24T02:45:03;1.17;;;0.60;;
13204;SDS011;6667;52.634;9.226;2023-04-24T02:47:31;1.50;;;0.40;;
13204;SDS011;6667;52.634;9.226;2023-04-24T02:49:58;0.60;;;0.60;;
13204;SDS011;6667;52.634;9.226;2023-04-24T02:52:25;0.60;;;0.60;;
13204;SDS011;6667;52.634;9.226;2023-04-24T02:54:52;0.60;;;0.60;;
13204;SDS011;6667;52.634;9.226;2023-04-24T02:57:19;1.50;;;0.60;;
13204;SDS011;6667;52.634;9.226;2023-04-24T02:59:46;1.20;;;0.60;;
13204;SDS011;6667;52.634;9.226;2023-04-24T03:02:12;0.60;;;0.60;;
13204;SDS011;6667;52.634;9.226;2023-04-24T03:04:39;0.60;;;0.60;;
13204;SDS011;6667;52.634;9.226;2023-04-24T03:07:09;0.57;;;0.57;;
13204;SDS011;6667;52.634;9.226;2023-04-24T03:09:35;0.70;;;0.50;;
13204;SDS011;6667;52.634;9.226;2023-04-24T03:12:02;1.57;;;0.40;;
13204;SDS011;6667;52.634;9.226;2023-04-24T03:14:29;0.57;;;0.57;;
13204;SDS011;6667;52.634;9.226;2023-04-24T03:16:56;0.97;;;0.63;;
13204;SDS011;6667;52.634;9.226;2023-04-24T03:19:22;0.50;;;0.50;;
13204;SDS011;6667;52.634;9.226;2023-04-24T03:21:49;0.73;;;0.50;;
13204;SDS011;6667;52.634;9.226;2023-04-24T03:24:17;0.53;;;0.53;;
13204;SDS011;6667;52.634;9.226;2023-04-24T03:26:44;0.80;;;0.67;;
13204;SDS011;6667;52.634;9.226;2023-04-24T03:29:10;0.60;;;0.60;;
13204;SDS011;6667;52.634;9.226;2023-04-24T03:31:37;2.10;;;0.60;;
13204;SDS011;6667;52.634;9.226;2023-04-24T03:34:03;0.37;;;0.37;;
13204;SDS011;6667;52.634;9.226;2023-04-24T03:36:30;0.60;;;0.60;;
13204;SDS011;6667;52.634;9.226;2023-04-24T03:38:57;0.60;;;0.57;;
13204;SDS011;6667;52.634;9.226;2023-04-24T03:41:24;0.60;;;0.60;;
13204;SDS011;6667;52.634;9.226;2023-04-24T03:43:51;0.70;;;0.70;;
13204;SDS011;6667;52.634;9.226;2023-04-24T03:46:19;0.73;;;0.47;;
13204;SDS011;6667;52.634;9.226;2023-04-24T03:48:45;0.80;;;0.80;;
13204;SDS011;6667;52.634;9.226;2023-04-24T03:51:12;0.93;;;0.63;;
13204;SDS011;6667;52.634;9.226;2023-04-24T03:53:39;0.70;;;0.63;;
13204;SDS011;6667;52.634;9.226;2023-04-24T03:56:05;0.60;;;0.60;;
13204;SDS011;6667;52.634;9.226;2023-04-24T03:58:33;2.40;;;1.00;;
13204;SDS011;6667;52.634;9.226;2023-04-24T04:01:00;1.10;;;1.00;;
13204;SDS011;6667;52.634;9.226;2023-04-24T04:03:27;3.40;;;1.10;;
13204;SDS011;6667;52.634;9.226;2023-04-24T04:05:54;1.33;;;1.07;;
13204;SDS011;6667;52.634;9.226;2023-04-24T04:08:21;1.03;;;0.87;;
13204;SDS011;6667;52.634;9.226;2023-04-24T04:10:47;1.10;;;1.00;;
13204;SDS011;6667;52.634;9.226;2023-04-24T04:13:14;1.20;;;1.10;;
13204;SDS011;6667;52.634;9.226;2023-04-24T04:15:43;1.17;;;0.93;;
13204;SDS011;6667;52.634;9.226;2023-04-24T04:18:09;1.20;;;1.10;;
13204;SDS011;6667;52.634;9.226;2023-04-24T04:20:36;3.07;;;1.17;;
13204;SDS011;6667;52.634;9.226;2023-04-24T04:23:03;1.10;;;1.00;;
13204;SDS011;6667;52.634;9.226;2023-04-24T04:25:29;1.87;;;1.13;;
13204;SDS011;6667;52.634;9.226;2023-04-24T04:27:56;1.20;;;1.10;;
13204;SDS011;6667;52.634;9.226;2023-04-24T04:30:24;2.37;;;1.40;;
13204;SDS011;6667;52.634;9.226;2023-04-24T04:32:52;2.43;;;1.40;;
13204;SDS011;6667;52.634;9.226;2023-04-24T04:35:19;1.20;;;1.10;;
13204;SDS011;6667;52.634;9.226;2023-04-24T04:37:45;2.87;;;1.20;;
13204;SDS011;6667;52.634;9.226;2023-04-24T04:40:12;1.97;;;1.40;;
13204;SDS011;6667;52.634;9.226;2023-04-24T04:42:39;1.00;;;1.00;;
13204;SDS011;6667;52.634;9.226;2023-04-24T04:45:06;1.43;;;1.10;;
13204;SDS011;6667;52.634;9.226;2023-04-24T04:47:36;3.83;;;1.67;;
13204;SDS011;6667;52.634;9.226;2023-04-24T04:50:04;2.40;;;1.20;;
13204;SDS011;6667;52.634;9.226;2023-04-24T04:52:32;2.70;;;1.30;;
13204;SDS011;6667;52.634;9.226;2023-04-24T04:54:58;1.30;;;1.20;;
13204;SDS011;6667;52.634;9.226;2023-04-24T04:57:25;1.53;;;1.27;;
13204;SDS011;6667;52.634;9.226;2023-04-24T04:59:51;1.33;;;1.23;;
13204;SDS011;6667;52.634;9.226;2023-04-24T05:02:18;0.80;;;0.80;;
13204;SDS011;6667;52.634;9.226;2023-04-24T05:04:45;2.00;;;1.57;;
13204;SDS011;6667;52.634;9.226;2023-04-24T05:07:13;1.13;;;1.07;;
13204;SDS011;6667;52.634;9.226;2023-04-24T05:09:40;1.13;;;1.03;;
13204;SDS011;6667;52.634;9.226;2023-04-24T05:12:06;1.17;;;1.07;;
13204;SDS011;6667;52.634;9.226;2023-04-24T05:14:33;1.37;;;1.27;;
13204;SDS011;6667;52.634;9.226;2023-04-24T05:16:59;3.43;;;1.50;;
13204;SDS011;6667;52.634;9.226;2023-04-24T05:19:26;0.93;;;0.93;;
13204;SDS011;6667;52.634;9.226;2023-04-24T05:21:53;1.17;;;1.00;;
13204;SDS011;6667;52.634;9.226;2023-04-24T05:24:21;2.50;;;1.27;;
13204;SDS011;6667;52.634;9.226;2023-04-24T05:26:47;1.37;;;1.03;;
13204;SDS011;6667;52.634;9.226;2023-04-24T05:29:14;1.20;;;1.10;;
13204;SDS011;6667;52.634;9.226;2023-04-24T05:31:40;1.23;;;1.13;;
13204;SDS011;6667;52.634;9.226;2023-04-24T05:34:07;1.93;;;1.57;;
13204;SDS011;6667;52.634;9.226;2023-04-24T05:36:35;1.20;;;1.10;;
13204;SDS011;6667;52.634;9.226;2023-04-24T05:39:01;2.93;;;1.20;;
13204;SDS011;6667;52.634;9.226;2023-04-24T05:41:31;1.47;;;1.30;;
13204;SDS011;6667;52.634;9.226;2023-04-24T05:43:57;1.37;;;1.20;;
13204;SDS011;6667;52.634;9.226;2023-04-24T05:46:24;1.60;;;1.33;;
13204;SDS011;6667;52.634;9.226;2023-04-24T05:48:51;1.70;;;1.57;;
13204;SDS011;6667;52.634;9.226;2023-04-24T05:51:17;1.97;;;1.83;;
13204;SDS011;6667;52.634;9.226;2023-04-24T05:53:44;1.77;;;1.67;;
13204;SDS011;6667;52.634;9.226;2023-04-24T05:56:10;2.83;;;1.97;;
13204;SDS011;6667;52.634;9.226;2023-04-24T05:58:39;2.10;;;1.83;;
13204;SDS011;6667;52.634;9.226;2023-04-24T06:01:07;2.00;;;1.70;;
13204;SDS011;6667;52.634;9.226;2023-04-24T06:04:04;3.60;;;2.10;;
13204;SDS011;6667;52.634;9.226;2023-04-24T06:06:34;2.77;;;2.30;;
13204;SDS011;6667;52.634;9.226;2023-04-24T06:09:51;3.83;;;1.87;;
13204;SDS011;6667;52.634;9.226;2023-04-24T06:13:07;2.20;;;1.93;;
13204;SDS011;6667;52.634;9.226;2023-04-24T06:15:36;3.00;;;2.17;;
13204;SDS011;6667;52.634;9.226;2023-04-24T06:27:56;3.67;;;2.90;;
13204;SDS011;6667;52.634;9.226;2023-04-24T06:47:11;6.33;;;5.10;;
13204;SDS011;6667;52.634;9.226;2023-04-24T06:49:43;8.43;;;6.93;;
13204;SDS011;6667;52.634;9.226;2023-04-24T06:52:20;7.70;;;6.10;;
13204;SDS011;6667;52.634;9.226;2023-04-24T06:55:14;8.57;;;7.13;;
13204;SDS011;6667;52.634;9.226;2023-04-24T06:58:04;10.13;;;6.40;;
13204;SDS011;6667;52.634;9.226;2023-04-24T07:00:34;10.00;;;5.87;;
13204;SDS011;6667;52.634;9.226;2023-04-24T07:03:10;9.93;;;6.77;;
13204;SDS011;6667;52.634;9.226;2023-04-24T07:05:39;8.27;;;7.00;;
13204;SDS011;6667;52.634;9.226;2023-04-24T07:08:07;10.07;;;6.67;;
13204;SDS011;6667;52.634;9.226;2023-04-24T07:14:30;10.27;;;7.33;;
13204;SDS011;6667;52.634;9.226;2023-04-24T07:17:15;11.17;;;6.40;;
13204;SDS011;6667;52.634;9.226;2023-04-24T07:19:43;10.03;;;5.30;;
13204;SDS011;6667;52.634;9.226;2023-04-24T07:22:23;6.83;;;5.77;;
13204;SDS011;6667;52.634;9.226;2023-04-24T07:24:50;8.47;;;6.73;;
13204;SDS011;6667;52.634;9.226;2023-04-24T07:27:18;7.37;;;6.03;;
13204;SDS011;6667;52.634;9.226;2023-04-24T07:39:19;8.67;;;5.93;;
13204;SDS011;6667;52.634;9.226;2023-04-24T07:41:47;6.23;;;5.20;;
13204;SDS011;6667;52.634;9.226;2023-04-24T07:47:13;10.23;;;6.83;;
13204;SDS011;6667;52.634;9.226;2023-04-24T07:50:27;10.03;;;6.27;;
13204;SDS011;6667;52.634;9.226;2023-04-24T07:53:23;9.77;;;6.50;;
13204;SDS011;6667;52.634;9.226;2023-04-24T07:55:55;9.70;;;6.33;;
13204;SDS011;6667;52.634;9.226;2023-04-24T08:01:41;9.83;;;6.57;;
13204;SDS011;6667;52.634;9.226;2023-04-24T08:07:31;9.90;;;7.40;;
13204;SDS011;6667;52.634;9.226;2023-04-24T08:10:13;10.13;;;6.40;;
13204;SDS011;6667;52.634;9.226;2023-04-24T08:12:51;8.93;;;7.43;;
13204;SDS011;6667;52.634;9.226;2023-04-24T08:18:02;9.17;;;7.00;;
13204;SDS011;6667;52.634;9.226;2023-04-24T08:28:08;8.23;;;6.57;;
13204;SDS011;6667;52.634;9.226;2023-04-24T08:30:39;9.40;;;6.90;;
13204;SDS011;6667;52.634;9.226;2023-04-24T08:33:13;11.33;;;6.60;;
13204;SDS011;6667;52.634;9.226;2023-04-24T08:39:11;9.77;;;6.70;;
13204;SDS011;6667;52.634;9.226;2023-04-24T08:51:44;8.03;;;5.63;;
13204;SDS011;6667;52.634;9.226;2023-04-24T08:54:33;11.67;;;6.80;;
13204;SDS011;6667;52.634;9.226;2023-04-24T08:57:01;12.50;;;6.87;;
13204;SDS011;6667;52.634;9.226;2023-04-24T08:59:29;8.67;;;6.93;;
13204;SDS011;6667;52.634;9.226;2023-04-24T09:01:57;8.07;;;6.43;;
13204;SDS011;6667;52.634;9.226;2023-04-24T09:04:24;9.87;;;6.00;;
13204;SDS011;6667;52.634;9.226;2023-04-24T09:06:52;9.90;;;6.13;;
13204;SDS011;6667;52.634;9.226;2023-04-24T09:09:22;9.00;;;6.37;;
13204;SDS011;6667;52.634;9.226;2023-04-24T09:11:50;8.57;;;6.20;;
13204;SDS011;6667;52.634;9.226;2023-04-24T09:14:20;8.70;;;6.60;;
13204;SDS011;6667;52.634;9.226;2023-04-24T09:16:48;6.67;;;5.50;;
13204;SDS011;6667;52.634;9.226;2023-04-24T09:19:15;9.57;;;6.13;;
13204;SDS011;6667;52.634;9.226;2023-04-24T09:21:42;6.20;;;5.57;;
13204;SDS011;6667;52.634;9.226;2023-04-24T09:24:16;6.30;;;4.87;;
13204;SDS011;6667;52.634;9.226;2023-04-24T09:26:43;6.50;;;5.40;;
13204;SDS011;6667;52.634;9.226;2023-04-24T09:29:13;7.77;;;5.20;;
13204;SDS011;6667;52.634;9.226;2023-04-24T09:31:41;6.03;;;5.20;;
13204;SDS011;6667;52.634;9.226;2023-04-24T09:34:08;6.50;;;5.03;;
13204;SDS011;6667;52.634;9.226;2023-04-24T09:36:35;7.07;;;4.90;;
13204;SDS011;6667;52.634;9.226;2023-04-24T09:39:03;6.80;;;4.93;;
13204;SDS011;6667;52.634;9.226;2023-04-24T09:41:35;7.90;;;4.70;;
13204;SDS011;6667;52.634;9.226;2023-04-24T09:44:11;4.80;;;3.67;;
13204;SDS011;6667;52.634;9.226;2023-04-24T09:46:39;5.23;;;4.43;;
13204;SDS011;6667;52.634;9.226;2023-04-24T09:49:10;5.20;;;4.33;;
13204;SDS011;6667;52.634;9.226;2023-04-24T09:51:38;6.43;;;4.83;;
13204;SDS011;6667;52.634;9.226;2023-04-24T09:54:11;4.60;;;4.13;;
13204;SDS011;6667;52.634;9.226;2023-04-24T09:56:43;5.60;;;3.80;;
13204;SDS011;6667;52.634;9.226;2023-04-24T09:59:11;4.67;;;3.90;;
13204;SDS011;6667;52.634;9.226;2023-04-24T10:01:38;4.43;;;3.60;;
13204;SDS011;6667;52.634;9.226;2023-04-24T10:04:14;5.13;;;3.80;;
13204;SDS011;6667;52.634;9.226;2023-04-24T10:06:42;3.60;;;3.20;;
13204;SDS011;6667;52.634;9.226;2023-04-24T10:09:09;5.10;;;3.73;;
13204;SDS011;6667;52.634;9.226;2023-04-24T10:11:38;4.17;;;3.47;;
13204;SDS011;6667;52.634;9.226;2023-04-24T10:14:10;4.13;;;3.67;;
13204;SDS011;6667;52.634;9.226;2023-04-24T10:16:39;3.53;;;3.20;;
13204;SDS011;6667;52.634;9.226;2023-04-24T10:19:06;3.40;;;3.10;;
13204;SDS011;6667;52.634;9.226;2023-04-24T10:21:33;4.27;;;2.83;;
13204;SDS011;6667;52.634;9.226;2023-04-24T10:24:00;3.87;;;2.93;;
13204;SDS011;6667;52.634;9.226;2023-04-24T10:26:28;3.40;;;3.10;;
13204;SDS011;6667;52.634;9.226;2023-04-24T10:28:57;3.37;;;3.00;;
13204;SDS011;6667;52.634;9.226;2023-04-24T10:31:24;3.50;;;3.00;;
13204;SDS011;6667;52.634;9.226;2023-04-24T10:33:52;3.28;;;2.58;;
13204;SDS011;6667;52.634;9.226;2023-04-24T10:36:19;2.87;;;2.63;;
13204;SDS011;6667;52.634;9.226;2023-04-24T10:38:51;3.10;;;2.80;;
13204;SDS011;6667;52.634;9.226;2023-04-24T10:41:18;2.60;;;2.40;;
13204;SDS011;6667;52.634;9.226;2023-04-24T10:43:48;5.53;;;2.30;;
13204;SDS011;6667;52.634;9.226;2023-04-24T10:46:30;2.80;;;2.33;;
13204;SDS011;6667;52.634;9.226;2023-04-24T10:48:57;2.40;;;2.20;;
13204;SDS011;6667;52.634;9.226;2023-04-24T10:51:24;2.57;;;2.13;;
13204;SDS011;6667;52.634;9.226;2023-04-24T10:54:21;2.53;;;2.33;;
13204;SDS011;6667;52.634;9.226;2023-04-24T10:56:49;2.33;;;1.87;;
13204;SDS011;6667;52.634;9.226;2023-04-24T10:59:23;2.50;;;2.30;;
13204;SDS011;6667;52.634;9.226;2023-04-24T11:01:54;2.42;;;2.22;;
13204;SDS011;6667;52.634;9.226;2023-04-24T11:04:30;2.40;;;2.20;;
13204;SDS011;6667;52.634;9.226;2023-04-24T11:06:58;1.93;;;1.83;;
13204;SDS011;6667;52.634;9.226;2023-04-24T11:09:26;2.77;;;2.53;;
13204;SDS011;6667;52.634;9.226;2023-04-24T11:12:02;2.20;;;2.00;;
13204;SDS011;6667;52.634;9.226;2023-04-24T11:14:31;3.00;;;2.10;;
13204;SDS011;6667;52.634;9.226;2023-04-24T11:17:31;2.30;;;2.10;;
13204;SDS011;6667;52.634;9.226;2023-04-24T11:20:01;2.27;;;2.03;;
13204;SDS011;6667;52.634;9.226;2023-04-24T11:22:29;1.73;;;1.55;;
13204;SDS011;6667;52.634;9.226;2023-04-24T11:25:00;1.90;;;1.80;;
13204;SDS011;6667;52.634;9.226;2023-04-24T11:27:29;2.03;;;1.87;;
13204;SDS011;6667;52.634;9.226;2023-04-24T11:30:02;2.90;;;2.13;;
13204;SDS011;6667;52.634;9.226;2023-04-24T11:32:30;2.20;;;1.80;;
13204;SDS011;6667;52.634;9.226;2023-04-24T11:35:01;2.10;;;1.90;;
13204;SDS011;6667;52.634;9.226;2023-04-24T11:37:30;2.87;;;1.80;;
13204;SDS011;6667;52.634;9.226;2023-04-24T11:40:00;1.80;;;1.70;;
13204;SDS011;6667;52.634;9.226;2023-04-24T11:42:27;1.70;;;1.60;;
13204;SDS011;6667;52.634;9.226;2023-04-24T11:44:55;2.10;;;1.90;;
13204;SDS011;6667;52.634;9.226;2023-04-24T11:47:28;1.70;;;1.60;;
13204;SDS011;6667;52.634;9.226;2023-04-24T11:49:55;2.30;;;2.10;;
13204;SDS011;6667;52.634;9.226;2023-04-24T11:52:22;3.17;;;2.67;;
13204;SDS011;6667;52.634;9.226;2023-04-24T11:54:49;2.50;;;2.30;;
13204;SDS011;6667;52.634;9.226;2023-04-24T11:57:16;2.90;;;2.50;;
13204;SDS011;6667;52.634;9.226;2023-04-24T11:59:44;2.33;;;2.13;;
13204;SDS011;6667;52.634;9.226;2023-04-24T12:02:19;3.93;;;2.20;;
13204;SDS011;6667;52.634;9.226;2023-04-24T12:04:48;1.77;;;1.63;;
13204;SDS011;6667;52.634;9.226;2023-04-24T12:07:14;2.60;;;2.13;;
13204;SDS011;6667;52.634;9.226;2023-04-24T12:09:43;4.07;;;2.00;;
13204;SDS011;6667;52.634;9.226;2023-04-24T12:12:11;2.47;;;1.73;;
13204;SDS011;6667;52.634;9.226;2023-04-24T12:14:42;2.93;;;2.10;;
13204;SDS011;6667;52.634;9.226;2023-04-24T12:17:23;2.23;;;1.67;;
13204;SDS011;6667;52.634;9.226;2023-04-24T12:19:52;3.10;;;2.00;;
13204;SDS011;6667;52.634;9.226;2023-04-24T12:22:23;2.23;;;2.03;;
13204;SDS011;6667;52.634;9.226;2023-04-24T12:24:56;2.23;;;2.13;;
13204;SDS011;6667;52.634;9.226;2023-04-24T12:27:23;1.70;;;1.60;;
13204;SDS011;6667;52.634;9.226;2023-04-24T12:29:51;2.87;;;1.90;;
13204;SDS011;6667;52.634;9.226;2023-04-24T12:32:18;1.70;;;1.60;;
13204;SDS011;6667;52.634;9.226;2023-04-24T12:34:45;1.87;;;1.77;;
13204;SDS011;6667;52.634;9.226;2023-04-24T12:37:13;1.47;;;1.37;;
13204;SDS011;6667;52.634;9.226;2023-04-24T12:39:39;1.67;;;1.57;;
13204;SDS011;6667;52.634;9.226;2023-04-24T12:42:25;2.00;;;1.47;;
13204;SDS011;6667;52.634;9.226;2023-04-24T12:44:55;1.23;;;1.20;;
13204;SDS011;6667;52.634;9.226;2023-04-24T12:47:23;1.37;;;1.27;;
13204;SDS011;6667;52.634;9.226;2023-04-24T12:49:50;1.50;;;1.40;;
13204;SDS011;6667;52.634;9.226;2023-04-24T12:52:18;1.60;;;1.50;;
13204;SDS011;6667;52.634;9.226;2023-04-24T12:54:45;1.50;;;1.40;;
13204;SDS011;6667;52.634;9.226;2023-04-24T12:57:12;1.03;;;1.00;;
13204;SDS011;6667;52.634;9.226;2023-04-24T12:59:39;0.97;;;0.77;;
13204;SDS011;6667;52.634;9.226;2023-04-24T13:02:06;0.67;;;0.67;;
13204;SDS011;6667;52.634;9.226;2023-04-24T13:04:34;1.37;;;0.80;;
13204;SDS011;6667;52.634;9.226;2023-04-24T13:07:00;0.80;;;0.80;;
13204;SDS011;6667;52.634;9.226;2023-04-24T13:09:28;0.60;;;0.60;;
13204;SDS011;6667;52.634;9.226;2023-04-24T13:11:56;0.40;;;0.40;;
13204;SDS011;6667;52.634;9.226;2023-04-24T13:14:22;0.60;;;0.60;;
13204;SDS011;6667;52.634;9.226;2023-04-24T13:16:49;2.80;;;0.93;;
13204;SDS011;6667;52.634;9.226;2023-04-24T13:19:16;1.00;;;0.80;;
13204;SDS011;6667;52.634;9.226;2023-04-24T13:21:42;1.20;;;0.93;;
13204;SDS011;6667;52.634;9.226;2023-04-24T13:24:09;1.70;;;1.30;;
13204;SDS011;6667;52.634;9.226;2023-04-24T13:26:37;1.53;;;1.43;;
13204;SDS011;6667;52.634;9.226;2023-04-24T13:29:04;2.73;;;1.63;;
13204;SDS011;6667;52.634;9.226;2023-04-24T13:31:30;2.27;;;1.63;;
13204;SDS011;6667;52.634;9.226;2023-04-24T13:33:57;4.40;;;1.97;;
13204;SDS011;6667;52.634;9.226;2023-04-24T13:36:24;3.03;;;2.07;;
13204;SDS011;6667;52.634;9.226;2023-04-24T13:38:51;2.30;;;1.60;;
13204;SDS011;6667;52.634;9.226;2023-04-24T13:41:17;2.40;;;2.10;;
13204;SDS011;6667;52.634;9.226;2023-04-24T13:43:45;3.00;;;1.90;;
13204;SDS011;6667;52.634;9.226;2023-04-24T13:46:12;3.47;;;1.80;;
13204;SDS011;6667;52.634;9.226;2023-04-24T13:48:38;2.60;;;1.70;;
13204;SDS011;6667;52.634;9.226;2023-04-24T13:51:05;2.53;;;2.13;;
13204;SDS011;6667;52.634;9.226;2023-04-24T13:53:32;2.80;;;2.07;;
13204;SDS011;6667;52.634;9.226;2023-04-24T13:56:01;3.40;;;2.50;;
13204;SDS011;6667;52.634;9.226;2023-04-24T13:58:27;4.80;;;2.93;;
13204;SDS011;6667;52.634;9.226;2023-04-24T14:00:56;4.40;;;2.40;;
13204;SDS011;6667;52.634;9.226;2023-04-24T14:03:22;3.87;;;2.37;;
13204;SDS011;6667;52.634;9.226;2023-04-24T14:05:49;2.27;;;2.07;;
13204;SDS011;6667;52.634;9.226;2023-04-24T14:08:15;1.93;;;1.80;;
13204;SDS011;6667;52.634;9.226;2023-04-24T14:10:42;3.87;;;2.10;;
13204;SDS011;6667;52.634;9.226;2023-04-24T14:13:09;3.03;;;2.27;;
13204;SDS011;6667;52.634;9.226;2023-04-24T14:15:35;5.00;;;2.40;;
13204;SDS011;6667;52.634;9.226;2023-04-24T14:18:04;4.17;;;2.43;;
13204;SDS011;6667;52.634;9.226;2023-04-24T14:20:30;3.40;;;2.17;;
13204;SDS011;6667;52.634;9.226;2023-04-24T14:22:57;3.90;;;2.03;;
13204;SDS011;6667;52.634;9.226;2023-04-24T14:25:24;4.20;;;1.80;;
13204;SDS011;6667;52.634;9.226;2023-04-24T14:27:51;2.10;;;1.90;;
13204;SDS011;6667;52.634;9.226;2023-04-24T14:30:17;2.50;;;2.03;;
13204;SDS011;6667;52.634;9.226;2023-04-24T14:32:45;4.03;;;2.03;;
13204;SDS011;6667;52.634;9.226;2023-04-24T14:35:13;5.97;;;2.33;;
13204;SDS011;6667;52.634;9.226;2023-04-24T14:37:40;3.20;;;2.50;;
13204;SDS011;6667;52.634;9.226;2023-04-24T14:40:08;5.37;;;2.57;;
13204;SDS011;6667;52.634;9.226;2023-04-24T14:42:35;5.50;;;3.13;;
13204;SDS011;6667;52.634;9.226;2023-04-24T14:45:02;4.40;;;3.33;;
13204;SDS011;6667;52.634;9.226;2023-04-24T14:47:29;4.40;;;2.70;;
13204;SDS011;6667;52.634;9.226;2023-04-24T14:49:56;6.67;;;2.93;;
13204;SDS011;6667;52.634;9.226;2023-04-24T14:52:24;2.67;;;2.20;;
13204;SDS011;6667;52.634;9.226;2023-04-24T14:54:50;3.93;;;2.20;;
13204;SDS011;6667;52.634;9.226;2023-04-24T14:57:17;3.00;;;2.50;;
13204;SDS011;6667;52.634;9.226;2023-04-24T14:59:44;6.93;;;2.83;;
13204;SDS011;6667;52.634;9.226;2023-04-24T15:02:10;4.50;;;2.90;;
13204;SDS011;6667;52.634;9.226;2023-04-24T15:04:37;4.57;;;2.47;;
13204;SDS011;6667;52.634;9.226;2023-04-24T15:07:03;3.03;;;2.30;;
13204;SDS011;6667;52.634;9.226;2023-04-24T15:09:31;5.20;;;2.67;;
13204;SDS011;6667;52.634;9.226;2023-04-24T15:11:59;6.13;;;2.80;;
13204;SDS011;6667;52.634;9.226;2023-04-24T15:14:26;4.80;;;2.90;;
13204;SDS011;6667;52.634;9.226;2023-04-24T15:16:53;5.23;;;2.80;;
13204;SDS011;6667;52.634;9.226;2023-04-24T15:19:20;2.70;;;2.20;;
13204;SDS011;6667;52.634;9.226;2023-04-24T15:21:47;4.80;;;2.90;;
13204;SDS011;6667;52.634;9.226;2023-04-24T15:24:14;5.83;;;3.30;;
13204;SDS011;6667;52.634;9.226;2023-04-24T15:26:43;7.37;;;3.13;;
13204;SDS011;6667;52.634;9.226;2023-04-24T15:29:10;6.20;;;2.80;;
13204;SDS011;6667;52.634;9.226;2023-04-24T15:31:37;4.57;;;2.90;;
13204;SDS011;6667;52.634;9.226;2023-04-24T15:34:05;5.83;;;3.13;;
13204;SDS011;6667;52.634;9.226;2023-04-24T15:36:33;5.03;;;3.13;;
13204;SDS011;6667;52.634;9.226;2023-04-24T15:39:01;8.43;;;3.70;;
13204;SDS011;6667;52.634;9.226;2023-04-24T15:41:29;5.47;;;3.20;;
13204;SDS011;6667;52.634;9.226;2023-04-24T15:43:58;7.30;;;3.53;;
13204;SDS011;6667;52.634;9.226;2023-04-24T15:46:25;6.80;;;3.43;;
13204;SDS011;6667;52.634;9.226;2023-04-24T15:48:52;23.70;;;4.60;;
13204;SDS011;6667;52.634;9.226;2023-04-24T15:51:20;7.43;;;3.93;;
13204;SDS011;6667;52.634;9.226;2023-04-24T15:53:47;5.07;;;3.33;;
13204;SDS011;6667;52.634;9.226;2023-04-24T15:56:14;7.53;;;3.77;;
13204;SDS011;6667;52.634;9.226;2023-04-24T15:58:41;5.47;;;3.93;;
13204;SDS011;6667;52.634;9.226;2023-04-24T16:01:10;5.37;;;3.70;;
13204;SDS011;6667;52.634;9.226;2023-04-24T16:03:37;8.53;;;3.67;;
13204;SDS011;6667;52.634;9.226;2023-04-24T16:06:05;4.50;;;2.93;;
13204;SDS011;6667;52.634;9.226;2023-04-24T16:08:32;5.00;;;3.73;;
13204;SDS011;6667;52.634;9.226;2023-04-24T16:11:00;9.57;;;4.03;;
13204;SDS011;6667;52.634;9.226;2023-04-24T16:13:26;6.67;;;3.60;;
13204;SDS011;6667;52.634;9.226;2023-04-24T16:15:55;5.07;;;3.57;;
13204;SDS011;6667;52.634;9.226;2023-04-24T16:18:23;4.47;;;3.40;;
13204;SDS011;6667;52.634;9.226;2023-04-24T16:20:50;4.80;;;2.70;;
13204;SDS011;6667;52.634;9.226;2023-04-24T16:23:17;6.77;;;3.50;;